sensor_id;sensor_type;location;lat;lon;timestamp;P1;durP1;ratioP1;P2;durP2;ratioP2
67861;SDS011;54665;51.462;6.698;2024-01-30T00:01:24;19.75;;;7.78;;
67861;SDS011;54665;51.462;6.698;2024-01-30T00:03:25;17.47;;;7.30;;
67861;SDS011;54665;51.462;6.698;2024-01-30T00:05:25;16.53;;;7.77;;
67861;SDS011;54665;51.462;6.698;2024-01-30T00:07:25;18.00;;;8.03;;
67861;SDS011;54665;51.462;6.698;2024-01-30T00:09:26;18.80;;;8.30;;
67861;SDS011;54665;51.462;6.698;2024-01-30T00:11:26;18.57;;;7.90;;
67861;SDS011;54665;51.462;6.698;2024-01-30T00:13:26;20.37;;;8.80;;
67861;SDS011;54665;51.462;6.698;2024-01-30T00:15:26;19.70;;;8.80;;
67861;SDS011;54665;51.462;6.698;2024-01-30T00:17:27;19.95;;;8.40;;
67861;SDS011;54665;51.462;6.698;2024-01-30T00:19:27;17.70;;;8.03;;
67861;SDS011;54665;51.462;6.698;2024-01-30T00:21:27;19.93;;;8.17;;
67861;SDS011;54665;51.462;6.698;2024-01-30T00:23:28;19.30;;;8.20;;
67861;SDS011;54665;51.462;6.698;2024-01-30T00:25:28;20.13;;;8.57;;
67861;SDS011;54665;51.462;6.698;2024-01-30T00:27:28;18.47;;;8.23;;
67861;SDS011;54665;51.462;6.698;2024-01-30T00:29:28;18.77;;;8.10;;
67861;SDS011;54665;51.462;6.698;2024-01-30T00:31:29;20.67;;;8.27;;
67861;SDS011;54665;51.462;6.698;2024-01-30T00:33:29;16.87;;;8.07;;
67861;SDS011;54665;51.462;6.698;2024-01-30T00:35:30;20.13;;;8.30;;
67861;SDS011;54665;51.462;6.698;2024-01-30T00:37:30;16.53;;;8.07;;
67861;SDS011;54665;51.462;6.698;2024-01-30T00:39:30;16.33;;;7.73;;
67861;SDS011;54665;51.462;6.698;2024-01-30T00:41:31;18.87;;;8.20;;
67861;SDS011;54665;51.462;6.698;2024-01-30T00:43:31;20.08;;;8.45;;
67861;SDS011;54665;51.462;6.698;2024-01-30T00:45:31;17.40;;;7.70;;
67861;SDS011;54665;51.462;6.698;2024-01-30T00:47:32;18.37;;;7.87;;
67861;SDS011;54665;51.462;6.698;2024-01-30T00:49:32;16.10;;;7.77;;
67861;SDS011;54665;51.462;6.698;2024-01-30T00:51:32;17.80;;;8.07;;
67861;SDS011;54665;51.462;6.698;2024-01-30T00:53:33;17.37;;;7.87;;
67861;SDS011;54665;51.462;6.698;2024-01-30T00:55:33;17.13;;;7.97;;
67861;SDS011;54665;51.462;6.698;2024-01-30T00:57:33;18.33;;;7.83;;
67861;SDS011;54665;51.462;6.698;2024-01-30T00:59:34;16.25;;;7.35;;
67861;SDS011;54665;51.462;6.698;2024-01-30T01:01:34;15.60;;;7.77;;
67861;SDS011;54665;51.462;6.698;2024-01-30T01:03:34;17.10;;;7.10;;
67861;SDS011;54665;51.462;6.698;2024-01-30T01:05:34;17.37;;;7.77;;
67861;SDS011;54665;51.462;6.698;2024-01-30T01:07:35;15.83;;;7.30;;
67861;SDS011;54665;51.462;6.698;2024-01-30T01:09:36;17.48;;;7.53;;
67861;SDS011;54665;51.462;6.698;2024-01-30T01:11:37;19.57;;;7.50;;
67861;SDS011;54665;51.462;6.698;2024-01-30T01:13:37;16.27;;;6.60;;
67861;SDS011;54665;51.462;6.698;2024-01-30T01:15:37;15.57;;;7.27;;
67861;SDS011;54665;51.462;6.698;2024-01-30T01:17:38;18.20;;;8.17;;
67861;SDS011;54665;51.462;6.698;2024-01-30T01:19:38;18.50;;;7.43;;
67861;SDS011;54665;51.462;6.698;2024-01-30T01:21:39;16.60;;;7.70;;
67861;SDS011;54665;51.462;6.698;2024-01-30T01:23:39;18.20;;;8.00;;
67861;SDS011;54665;51.462;6.698;2024-01-30T01:25:39;19.30;;;8.20;;
67861;SDS011;54665;51.462;6.698;2024-01-30T01:27:39;20.30;;;8.77;;
67861;SDS011;54665;51.462;6.698;2024-01-30T01:29:40;18.33;;;8.30;;
67861;SDS011;54665;51.462;6.698;2024-01-30T01:31:40;19.00;;;8.07;;
67861;SDS011;54665;51.462;6.698;2024-01-30T01:33:40;19.37;;;8.50;;
67861;SDS011;54665;51.462;6.698;2024-01-30T01:35:41;15.83;;;7.90;;
67861;SDS011;54665;51.462;6.698;2024-01-30T01:37:41;16.77;;;7.07;;
67861;SDS011;54665;51.462;6.698;2024-01-30T01:39:41;18.30;;;8.10;;
67861;SDS011;54665;51.462;6.698;2024-01-30T01:41:41;17.33;;;8.10;;
67861;SDS011;54665;51.462;6.698;2024-01-30T01:43:42;19.80;;;8.40;;
67861;SDS011;54665;51.462;6.698;2024-01-30T01:45:42;17.13;;;7.93;;
67861;SDS011;54665;51.462;6.698;2024-01-30T01:47:42;16.60;;;8.03;;
67861;SDS011;54665;51.462;6.698;2024-01-30T01:49:43;15.73;;;7.65;;
67861;SDS011;54665;51.462;6.698;2024-01-30T01:51:44;18.47;;;8.57;;
67861;SDS011;54665;51.462;6.698;2024-01-30T01:53:47;16.92;;;8.20;;
67861;SDS011;54665;51.462;6.698;2024-01-30T01:55:47;16.97;;;7.93;;
67861;SDS011;54665;51.462;6.698;2024-01-30T01:57:48;17.85;;;8.10;;
67861;SDS011;54665;51.462;6.698;2024-01-30T01:59:48;19.43;;;8.13;;
67861;SDS011;54665;51.462;6.698;2024-01-30T02:01:49;17.53;;;7.50;;
67861;SDS011;54665;51.462;6.698;2024-01-30T02:03:49;19.25;;;7.82;;
67861;SDS011;54665;51.462;6.698;2024-01-30T02:05:52;14.87;;;7.73;;
67861;SDS011;54665;51.462;6.698;2024-01-30T02:07:54;18.88;;;8.23;;
67861;SDS011;54665;51.462;6.698;2024-01-30T02:09:55;17.37;;;7.90;;
67861;SDS011;54665;51.462;6.698;2024-01-30T02:11:55;18.13;;;7.90;;
67861;SDS011;54665;51.462;6.698;2024-01-30T02:13:55;17.17;;;7.53;;
67861;SDS011;54665;51.462;6.698;2024-01-30T02:15:56;17.55;;;8.23;;
67861;SDS011;54665;51.462;6.698;2024-01-30T02:17:56;17.57;;;7.50;;
67861;SDS011;54665;51.462;6.698;2024-01-30T02:19:57;19.50;;;8.50;;
67861;SDS011;54665;51.462;6.698;2024-01-30T02:21:57;19.73;;;8.13;;
67861;SDS011;54665;51.462;6.698;2024-01-30T02:23:57;17.88;;;8.10;;
67861;SDS011;54665;51.462;6.698;2024-01-30T02:25:59;18.73;;;8.40;;
67861;SDS011;54665;51.462;6.698;2024-01-30T02:28:00;18.92;;;7.95;;
67861;SDS011;54665;51.462;6.698;2024-01-30T02:30:00;20.00;;;8.30;;
67861;SDS011;54665;51.462;6.698;2024-01-30T02:32:01;18.85;;;8.32;;
67861;SDS011;54665;51.462;6.698;2024-01-30T02:34:01;17.33;;;7.80;;
67861;SDS011;54665;51.462;6.698;2024-01-30T02:36:02;20.53;;;7.90;;
67861;SDS011;54665;51.462;6.698;2024-01-30T02:38:02;16.80;;;8.13;;
67861;SDS011;54665;51.462;6.698;2024-01-30T02:40:03;17.33;;;8.18;;
67861;SDS011;54665;51.462;6.698;2024-01-30T02:42:04;16.90;;;8.05;;
67861;SDS011;54665;51.462;6.698;2024-01-30T02:44:04;15.87;;;7.20;;
67861;SDS011;54665;51.462;6.698;2024-01-30T02:46:05;19.53;;;8.40;;
67861;SDS011;54665;51.462;6.698;2024-01-30T02:48:05;17.40;;;7.90;;
67861;SDS011;54665;51.462;6.698;2024-01-30T02:50:06;16.42;;;7.80;;
67861;SDS011;54665;51.462;6.698;2024-01-30T02:52:06;17.40;;;7.60;;
67861;SDS011;54665;51.462;6.698;2024-01-30T02:54:06;16.83;;;7.53;;
67861;SDS011;54665;51.462;6.698;2024-01-30T02:56:07;20.97;;;7.97;;
67861;SDS011;54665;51.462;6.698;2024-01-30T02:58:07;17.33;;;7.37;;
67861;SDS011;54665;51.462;6.698;2024-01-30T03:00:08;19.13;;;7.63;;
67861;SDS011;54665;51.462;6.698;2024-01-30T03:02:09;16.58;;;7.65;;
67861;SDS011;54665;51.462;6.698;2024-01-30T03:04:09;15.10;;;7.57;;
67861;SDS011;54665;51.462;6.698;2024-01-30T03:06:10;16.40;;;7.40;;
67861;SDS011;54665;51.462;6.698;2024-01-30T03:08:10;16.67;;;7.50;;
67861;SDS011;54665;51.462;6.698;2024-01-30T03:10:10;16.80;;;7.63;;
67861;SDS011;54665;51.462;6.698;2024-01-30T03:12:10;19.90;;;7.57;;
67861;SDS011;54665;51.462;6.698;2024-01-30T03:14:11;16.92;;;7.45;;
67861;SDS011;54665;51.462;6.698;2024-01-30T03:16:11;17.77;;;7.23;;
67861;SDS011;54665;51.462;6.698;2024-01-30T03:18:11;14.67;;;7.03;;
67861;SDS011;54665;51.462;6.698;2024-01-30T03:20:12;17.07;;;6.83;;
67861;SDS011;54665;51.462;6.698;2024-01-30T03:22:12;18.07;;;7.43;;
67861;SDS011;54665;51.462;6.698;2024-01-30T03:24:13;16.55;;;7.50;;
67861;SDS011;54665;51.462;6.698;2024-01-30T03:26:13;15.40;;;7.40;;
67861;SDS011;54665;51.462;6.698;2024-01-30T03:28:13;15.70;;;7.50;;
67861;SDS011;54665;51.462;6.698;2024-01-30T03:30:14;16.23;;;7.10;;
67861;SDS011;54665;51.462;6.698;2024-01-30T03:32:14;16.83;;;7.60;;
67861;SDS011;54665;51.462;6.698;2024-01-30T03:34:14;16.73;;;7.60;;
67861;SDS011;54665;51.462;6.698;2024-01-30T03:36:15;15.65;;;7.05;;
67861;SDS011;54665;51.462;6.698;2024-01-30T03:38:15;17.37;;;7.17;;
67861;SDS011;54665;51.462;6.698;2024-01-30T03:40:16;16.27;;;6.97;;
67861;SDS011;54665;51.462;6.698;2024-01-30T03:42:16;14.60;;;6.85;;
67861;SDS011;54665;51.462;6.698;2024-01-30T03:44:17;15.17;;;7.00;;
67861;SDS011;54665;51.462;6.698;2024-01-30T03:46:17;17.87;;;7.30;;
67861;SDS011;54665;51.462;6.698;2024-01-30T03:48:17;16.10;;;7.17;;
67861;SDS011;54665;51.462;6.698;2024-01-30T03:50:18;14.93;;;7.00;;
67861;SDS011;54665;51.462;6.698;2024-01-30T03:52:18;15.20;;;6.90;;
67861;SDS011;54665;51.462;6.698;2024-01-30T03:54:18;17.87;;;7.53;;
67861;SDS011;54665;51.462;6.698;2024-01-30T03:56:19;15.13;;;7.47;;
67861;SDS011;54665;51.462;6.698;2024-01-30T03:58:19;18.93;;;7.20;;
67861;SDS011;54665;51.462;6.698;2024-01-30T04:00:19;16.30;;;7.27;;
67861;SDS011;54665;51.462;6.698;2024-01-30T04:02:20;17.30;;;7.57;;
67861;SDS011;54665;51.462;6.698;2024-01-30T04:04:20;17.97;;;7.40;;
67861;SDS011;54665;51.462;6.698;2024-01-30T04:06:20;17.00;;;7.20;;
67861;SDS011;54665;51.462;6.698;2024-01-30T04:08:21;19.10;;;8.07;;
67861;SDS011;54665;51.462;6.698;2024-01-30T04:10:21;16.37;;;7.10;;
67861;SDS011;54665;51.462;6.698;2024-01-30T04:12:21;19.13;;;7.73;;
67861;SDS011;54665;51.462;6.698;2024-01-30T04:14:21;16.97;;;7.47;;
67861;SDS011;54665;51.462;6.698;2024-01-30T04:16:22;16.37;;;6.80;;
67861;SDS011;54665;51.462;6.698;2024-01-30T04:18:23;18.02;;;7.95;;
67861;SDS011;54665;51.462;6.698;2024-01-30T04:20:23;17.13;;;7.20;;
67861;SDS011;54665;51.462;6.698;2024-01-30T04:22:23;16.73;;;7.50;;
67861;SDS011;54665;51.462;6.698;2024-01-30T04:24:24;15.97;;;7.13;;
67861;SDS011;54665;51.462;6.698;2024-01-30T04:26:24;19.57;;;7.40;;
67861;SDS011;54665;51.462;6.698;2024-01-30T04:28:24;18.40;;;7.95;;
67861;SDS011;54665;51.462;6.698;2024-01-30T04:30:24;18.63;;;7.47;;
67861;SDS011;54665;51.462;6.698;2024-01-30T04:32:25;15.73;;;7.50;;
67861;SDS011;54665;51.462;6.698;2024-01-30T04:34:25;18.03;;;7.30;;
67861;SDS011;54665;51.462;6.698;2024-01-30T04:36:25;19.57;;;7.43;;
67861;SDS011;54665;51.462;6.698;2024-01-30T04:38:25;18.23;;;7.77;;
67861;SDS011;54665;51.462;6.698;2024-01-30T04:40:26;14.90;;;7.13;;
67861;SDS011;54665;51.462;6.698;2024-01-30T04:42:26;17.97;;;7.70;;
67861;SDS011;54665;51.462;6.698;2024-01-30T04:44:26;22.07;;;8.13;;
67861;SDS011;54665;51.462;6.698;2024-01-30T04:46:27;18.75;;;7.63;;
67861;SDS011;54665;51.462;6.698;2024-01-30T04:48:27;21.10;;;7.37;;
67861;SDS011;54665;51.462;6.698;2024-01-30T04:50:27;18.07;;;8.00;;
67861;SDS011;54665;51.462;6.698;2024-01-30T04:52:27;17.73;;;7.83;;
67861;SDS011;54665;51.462;6.698;2024-01-30T04:54:28;17.37;;;7.67;;
67861;SDS011;54665;51.462;6.698;2024-01-30T04:56:28;14.87;;;6.80;;
67861;SDS011;54665;51.462;6.698;2024-01-30T04:58:29;18.42;;;7.40;;
67861;SDS011;54665;51.462;6.698;2024-01-30T05:00:29;18.43;;;7.43;;
67861;SDS011;54665;51.462;6.698;2024-01-30T05:02:29;18.77;;;7.93;;
67861;SDS011;54665;51.462;6.698;2024-01-30T05:04:30;16.27;;;7.40;;
67861;SDS011;54665;51.462;6.698;2024-01-30T05:06:30;18.60;;;7.50;;
67861;SDS011;54665;51.462;6.698;2024-01-30T05:08:30;18.50;;;6.80;;
67861;SDS011;54665;51.462;6.698;2024-01-30T05:10:31;19.53;;;7.73;;
67861;SDS011;54665;51.462;6.698;2024-01-30T05:12:31;18.23;;;7.57;;
67861;SDS011;54665;51.462;6.698;2024-01-30T05:14:31;20.48;;;7.90;;
67861;SDS011;54665;51.462;6.698;2024-01-30T05:16:31;22.47;;;7.73;;
67861;SDS011;54665;51.462;6.698;2024-01-30T05:18:32;16.60;;;7.10;;
67861;SDS011;54665;51.462;6.698;2024-01-30T05:20:32;18.03;;;7.97;;
67861;SDS011;54665;51.462;6.698;2024-01-30T05:22:33;17.67;;;7.67;;
67861;SDS011;54665;51.462;6.698;2024-01-30T05:24:33;18.48;;;7.95;;
67861;SDS011;54665;51.462;6.698;2024-01-30T05:26:33;20.00;;;7.80;;
67861;SDS011;54665;51.462;6.698;2024-01-30T05:28:34;18.97;;;7.60;;
67861;SDS011;54665;51.462;6.698;2024-01-30T05:30:34;17.83;;;7.73;;
67861;SDS011;54665;51.462;6.698;2024-01-30T05:32:34;19.63;;;7.80;;
67861;SDS011;54665;51.462;6.698;2024-01-30T05:34:35;18.43;;;7.27;;
67861;SDS011;54665;51.462;6.698;2024-01-30T05:36:35;17.67;;;7.63;;
67861;SDS011;54665;51.462;6.698;2024-01-30T05:38:36;20.73;;;7.43;;
67861;SDS011;54665;51.462;6.698;2024-01-30T05:40:36;17.87;;;7.47;;
67861;SDS011;54665;51.462;6.698;2024-01-30T05:42:36;15.83;;;7.27;;
67861;SDS011;54665;51.462;6.698;2024-01-30T05:44:36;18.03;;;6.90;;
67861;SDS011;54665;51.462;6.698;2024-01-30T05:46:37;16.57;;;6.97;;
67861;SDS011;54665;51.462;6.698;2024-01-30T05:48:37;18.33;;;6.93;;
67861;SDS011;54665;51.462;6.698;2024-01-30T05:50:37;18.23;;;7.30;;
67861;SDS011;54665;51.462;6.698;2024-01-30T05:52:38;16.93;;;7.33;;
67861;SDS011;54665;51.462;6.698;2024-01-30T05:54:38;17.35;;;6.60;;
67861;SDS011;54665;51.462;6.698;2024-01-30T05:56:38;16.27;;;7.13;;
67861;SDS011;54665;51.462;6.698;2024-01-30T05:58:38;17.23;;;7.47;;
67861;SDS011;54665;51.462;6.698;2024-01-30T06:00:39;14.40;;;6.50;;
67861;SDS011;54665;51.462;6.698;2024-01-30T06:02:39;15.80;;;7.03;;
67861;SDS011;54665;51.462;6.698;2024-01-30T06:04:40;16.70;;;7.20;;
67861;SDS011;54665;51.462;6.698;2024-01-30T06:06:40;17.63;;;6.97;;
67861;SDS011;54665;51.462;6.698;2024-01-30T06:08:41;16.98;;;7.13;;
67861;SDS011;54665;51.462;6.698;2024-01-30T06:10:41;16.53;;;7.47;;
67861;SDS011;54665;51.462;6.698;2024-01-30T06:12:41;18.57;;;7.20;;
67861;SDS011;54665;51.462;6.698;2024-01-30T06:14:42;15.52;;;6.88;;
67861;SDS011;54665;51.462;6.698;2024-01-30T06:16:42;14.60;;;6.73;;
67861;SDS011;54665;51.462;6.698;2024-01-30T06:18:43;16.23;;;6.70;;
67861;SDS011;54665;51.462;6.698;2024-01-30T06:20:43;17.13;;;7.40;;
67861;SDS011;54665;51.462;6.698;2024-01-30T06:22:43;15.30;;;7.07;;
67861;SDS011;54665;51.462;6.698;2024-01-30T06:24:44;17.55;;;7.15;;
67861;SDS011;54665;51.462;6.698;2024-01-30T06:26:44;16.13;;;7.70;;
67861;SDS011;54665;51.462;6.698;2024-01-30T06:28:44;16.30;;;7.63;;
67861;SDS011;54665;51.462;6.698;2024-01-30T06:30:44;17.47;;;7.27;;
67861;SDS011;54665;51.462;6.698;2024-01-30T06:32:45;21.07;;;7.77;;
67861;SDS011;54665;51.462;6.698;2024-01-30T06:34:45;17.33;;;7.40;;
67861;SDS011;54665;51.462;6.698;2024-01-30T06:36:45;15.90;;;7.00;;
67861;SDS011;54665;51.462;6.698;2024-01-30T06:38:45;18.37;;;7.87;;
67861;SDS011;54665;51.462;6.698;2024-01-30T06:40:46;18.53;;;7.63;;
67861;SDS011;54665;51.462;6.698;2024-01-30T06:42:46;17.40;;;7.30;;
67861;SDS011;54665;51.462;6.698;2024-01-30T06:44:46;16.20;;;7.20;;
67861;SDS011;54665;51.462;6.698;2024-01-30T06:46:47;14.60;;;7.17;;
67861;SDS011;54665;51.462;6.698;2024-01-30T06:48:47;16.70;;;7.17;;
67861;SDS011;54665;51.462;6.698;2024-01-30T06:50:47;16.63;;;7.60;;
67861;SDS011;54665;51.462;6.698;2024-01-30T06:52:47;14.60;;;6.73;;
67861;SDS011;54665;51.462;6.698;2024-01-30T06:54:48;17.27;;;7.50;;
67861;SDS011;54665;51.462;6.698;2024-01-30T06:56:48;16.77;;;7.37;;
67861;SDS011;54665;51.462;6.698;2024-01-30T06:58:48;16.13;;;7.07;;
67861;SDS011;54665;51.462;6.698;2024-01-30T07:00:52;21.10;;;7.38;;
67861;SDS011;54665;51.462;6.698;2024-01-30T07:02:52;20.77;;;7.97;;
67861;SDS011;54665;51.462;6.698;2024-01-30T07:04:52;19.90;;;7.33;;
67861;SDS011;54665;51.462;6.698;2024-01-30T07:06:53;20.00;;;7.63;;
67861;SDS011;54665;51.462;6.698;2024-01-30T07:08:53;19.67;;;7.60;;
67861;SDS011;54665;51.462;6.698;2024-01-30T07:10:53;19.60;;;6.93;;
67861;SDS011;54665;51.462;6.698;2024-01-30T07:12:53;19.57;;;7.73;;
67861;SDS011;54665;51.462;6.698;2024-01-30T07:14:54;18.23;;;7.57;;
67861;SDS011;54665;51.462;6.698;2024-01-30T07:16:54;21.77;;;7.70;;
67861;SDS011;54665;51.462;6.698;2024-01-30T07:18:54;18.87;;;7.07;;
67861;SDS011;54665;51.462;6.698;2024-01-30T07:20:55;20.17;;;6.97;;
67861;SDS011;54665;51.462;6.698;2024-01-30T07:22:55;19.63;;;7.60;;
67861;SDS011;54665;51.462;6.698;2024-01-30T07:24:56;15.13;;;7.15;;
67861;SDS011;54665;51.462;6.698;2024-01-30T07:26:56;17.43;;;7.70;;
67861;SDS011;54665;51.462;6.698;2024-01-30T07:28:57;17.77;;;7.40;;
67861;SDS011;54665;51.462;6.698;2024-01-30T07:30:57;19.60;;;7.80;;
67861;SDS011;54665;51.462;6.698;2024-01-30T07:32:57;17.88;;;7.88;;
67861;SDS011;54665;51.462;6.698;2024-01-30T07:34:57;19.43;;;7.70;;
67861;SDS011;54665;51.462;6.698;2024-01-30T07:36:58;17.60;;;7.70;;
67861;SDS011;54665;51.462;6.698;2024-01-30T07:38:58;19.80;;;7.53;;
67861;SDS011;54665;51.462;6.698;2024-01-30T07:40:58;18.50;;;7.33;;
67861;SDS011;54665;51.462;6.698;2024-01-30T07:42:59;17.47;;;7.30;;
67861;SDS011;54665;51.462;6.698;2024-01-30T07:45:00;19.03;;;7.80;;
67861;SDS011;54665;51.462;6.698;2024-01-30T07:47:00;18.00;;;7.95;;
67861;SDS011;54665;51.462;6.698;2024-01-30T07:49:01;19.97;;;7.67;;
67861;SDS011;54665;51.462;6.698;2024-01-30T07:51:01;17.13;;;7.73;;
67861;SDS011;54665;51.462;6.698;2024-01-30T07:53:01;17.53;;;6.40;;
67861;SDS011;54665;51.462;6.698;2024-01-30T07:55:02;15.93;;;6.97;;
67861;SDS011;54665;51.462;6.698;2024-01-30T07:57:02;16.60;;;6.97;;
67861;SDS011;54665;51.462;6.698;2024-01-30T07:59:02;16.60;;;7.13;;
67861;SDS011;54665;51.462;6.698;2024-01-30T08:01:03;14.70;;;6.97;;
67861;SDS011;54665;51.462;6.698;2024-01-30T08:03:03;16.43;;;6.70;;
67861;SDS011;54665;51.462;6.698;2024-01-30T08:05:04;16.63;;;7.07;;
67861;SDS011;54665;51.462;6.698;2024-01-30T08:07:05;13.47;;;6.30;;
67861;SDS011;54665;51.462;6.698;2024-01-30T08:09:05;19.65;;;7.30;;
67861;SDS011;54665;51.462;6.698;2024-01-30T08:11:05;18.87;;;7.00;;
67861;SDS011;54665;51.462;6.698;2024-01-30T08:13:05;17.77;;;6.77;;
67861;SDS011;54665;51.462;6.698;2024-01-30T08:15:06;16.23;;;7.13;;
67861;SDS011;54665;51.462;6.698;2024-01-30T08:17:06;19.00;;;7.43;;
67861;SDS011;54665;51.462;6.698;2024-01-30T08:19:07;19.50;;;7.57;;
67861;SDS011;54665;51.462;6.698;2024-01-30T08:21:07;16.73;;;7.22;;
67861;SDS011;54665;51.462;6.698;2024-01-30T08:23:08;17.17;;;6.80;;
67861;SDS011;54665;51.462;6.698;2024-01-30T08:25:08;19.17;;;6.90;;
67861;SDS011;54665;51.462;6.698;2024-01-30T08:27:09;16.47;;;7.17;;
67861;SDS011;54665;51.462;6.698;2024-01-30T08:29:09;15.98;;;6.82;;
67861;SDS011;54665;51.462;6.698;2024-01-30T08:31:12;23.53;;;7.30;;
67861;SDS011;54665;51.462;6.698;2024-01-30T08:33:13;17.23;;;7.65;;
67861;SDS011;54665;51.462;6.698;2024-01-30T08:35:13;17.23;;;7.77;;
67861;SDS011;54665;51.462;6.698;2024-01-30T08:37:14;19.47;;;7.60;;
67861;SDS011;54665;51.462;6.698;2024-01-30T08:39:14;23.43;;;8.20;;
67861;SDS011;54665;51.462;6.698;2024-01-30T08:41:14;21.60;;;8.00;;
67861;SDS011;54665;51.462;6.698;2024-01-30T08:43:14;18.75;;;8.05;;
67861;SDS011;54665;51.462;6.698;2024-01-30T08:45:15;19.37;;;8.30;;
67861;SDS011;54665;51.462;6.698;2024-01-30T08:47:15;19.27;;;8.63;;
67861;SDS011;54665;51.462;6.698;2024-01-30T08:49:19;19.30;;;8.50;;
67861;SDS011;54665;51.462;6.698;2024-01-30T08:51:20;27.73;;;9.73;;
67861;SDS011;54665;51.462;6.698;2024-01-30T08:53:20;21.30;;;8.60;;
67861;SDS011;54665;51.462;6.698;2024-01-30T08:55:20;20.93;;;9.10;;
67861;SDS011;54665;51.462;6.698;2024-01-30T08:57:21;24.67;;;9.60;;
67861;SDS011;54665;51.462;6.698;2024-01-30T08:59:21;26.10;;;9.93;;
67861;SDS011;54665;51.462;6.698;2024-01-30T09:01:21;22.97;;;9.20;;
67861;SDS011;54665;51.462;6.698;2024-01-30T09:03:21;23.93;;;9.73;;
67861;SDS011;54665;51.462;6.698;2024-01-30T09:05:22;23.83;;;10.03;;
67861;SDS011;54665;51.462;6.698;2024-01-30T09:07:22;20.37;;;8.43;;
67861;SDS011;54665;51.462;6.698;2024-01-30T09:09:22;21.42;;;8.90;;
67861;SDS011;54665;51.462;6.698;2024-01-30T09:11:23;18.63;;;8.30;;
67861;SDS011;54665;51.462;6.698;2024-01-30T09:13:23;19.40;;;8.23;;
67861;SDS011;54665;51.462;6.698;2024-01-30T09:15:23;20.83;;;6.90;;
67861;SDS011;54665;51.462;6.698;2024-01-30T09:17:23;14.97;;;6.47;;
67861;SDS011;54665;51.462;6.698;2024-01-30T09:19:24;14.60;;;7.00;;
67861;SDS011;54665;51.462;6.698;2024-01-30T09:21:24;17.37;;;6.90;;
67861;SDS011;54665;51.462;6.698;2024-01-30T09:23:25;15.57;;;7.20;;
67861;SDS011;54665;51.462;6.698;2024-01-30T09:25:26;15.90;;;7.65;;
67861;SDS011;54665;51.462;6.698;2024-01-30T09:27:27;13.93;;;6.97;;
67861;SDS011;54665;51.462;6.698;2024-01-30T09:29:27;14.83;;;6.87;;
67861;SDS011;54665;51.462;6.698;2024-01-30T09:31:27;14.30;;;6.97;;
67861;SDS011;54665;51.462;6.698;2024-01-30T09:33:28;17.27;;;7.10;;
67861;SDS011;54665;51.462;6.698;2024-01-30T09:35:28;15.33;;;6.33;;
67861;SDS011;54665;51.462;6.698;2024-01-30T09:37:28;13.67;;;6.50;;
67861;SDS011;54665;51.462;6.698;2024-01-30T09:39:28;16.73;;;7.50;;
67861;SDS011;54665;51.462;6.698;2024-01-30T09:41:29;15.47;;;7.13;;
67861;SDS011;54665;51.462;6.698;2024-01-30T09:43:32;15.85;;;7.45;;
67861;SDS011;54665;51.462;6.698;2024-01-30T09:45:33;15.68;;;6.80;;
67861;SDS011;54665;51.462;6.698;2024-01-30T09:47:42;17.40;;;7.13;;
67861;SDS011;54665;51.462;6.698;2024-01-30T09:49:43;15.95;;;6.93;;
67861;SDS011;54665;51.462;6.698;2024-01-30T09:51:44;14.97;;;6.93;;
67861;SDS011;54665;51.462;6.698;2024-01-30T09:53:45;13.82;;;7.18;;
67861;SDS011;54665;51.462;6.698;2024-01-30T09:55:45;16.90;;;7.30;;
67861;SDS011;54665;51.462;6.698;2024-01-30T09:57:46;14.30;;;6.90;;
67861;SDS011;54665;51.462;6.698;2024-01-30T09:59:46;13.70;;;6.93;;
67861;SDS011;54665;51.462;6.698;2024-01-30T10:01:46;16.17;;;7.17;;
67861;SDS011;54665;51.462;6.698;2024-01-30T10:03:50;16.42;;;6.97;;
67861;SDS011;54665;51.462;6.698;2024-01-30T10:05:51;14.77;;;6.70;;
67861;SDS011;54665;51.462;6.698;2024-01-30T10:07:52;15.10;;;6.70;;
67861;SDS011;54665;51.462;6.698;2024-01-30T10:09:53;15.70;;;6.85;;
67861;SDS011;54665;51.462;6.698;2024-01-30T10:11:54;15.00;;;6.78;;
67861;SDS011;54665;51.462;6.698;2024-01-30T10:13:54;13.80;;;6.83;;
67861;SDS011;54665;51.462;6.698;2024-01-30T10:15:54;14.90;;;6.33;;
67861;SDS011;54665;51.462;6.698;2024-01-30T10:17:55;12.97;;;6.63;;
67861;SDS011;54665;51.462;6.698;2024-01-30T10:19:55;13.20;;;6.50;;
67861;SDS011;54665;51.462;6.698;2024-01-30T10:21:55;14.37;;;6.70;;
67861;SDS011;54665;51.462;6.698;2024-01-30T10:23:56;13.27;;;5.90;;
67861;SDS011;54665;51.462;6.698;2024-01-30T10:25:56;16.50;;;6.90;;
67861;SDS011;54665;51.462;6.698;2024-01-30T10:27:56;14.27;;;7.10;;
67861;SDS011;54665;51.462;6.698;2024-01-30T10:29:59;10.52;;;5.47;;
67861;SDS011;54665;51.462;6.698;2024-01-30T10:32:03;15.43;;;6.97;;
67861;SDS011;54665;51.462;6.698;2024-01-30T10:34:04;13.93;;;6.72;;
67861;SDS011;54665;51.462;6.698;2024-01-30T10:36:05;13.47;;;6.90;;
67861;SDS011;54665;51.462;6.698;2024-01-30T10:38:05;15.63;;;7.05;;
67861;SDS011;54665;51.462;6.698;2024-01-30T10:40:11;15.03;;;6.97;;
67861;SDS011;54665;51.462;6.698;2024-01-30T10:42:15;18.20;;;7.70;;
67861;SDS011;54665;51.462;6.698;2024-01-30T10:44:18;14.38;;;7.10;;
67861;SDS011;54665;51.462;6.698;2024-01-30T10:46:22;16.08;;;7.55;;
67861;SDS011;54665;51.462;6.698;2024-01-30T10:48:26;15.65;;;8.05;;
67861;SDS011;54665;51.462;6.698;2024-01-30T10:50:30;16.43;;;7.57;;
67861;SDS011;54665;51.462;6.698;2024-01-30T10:52:31;17.77;;;7.63;;
67861;SDS011;54665;51.462;6.698;2024-01-30T10:54:32;15.02;;;7.15;;
67861;SDS011;54665;51.462;6.698;2024-01-30T10:56:34;15.47;;;7.43;;
67861;SDS011;54665;51.462;6.698;2024-01-30T10:58:35;16.13;;;8.00;;
67861;SDS011;54665;51.462;6.698;2024-01-30T11:00:35;17.67;;;8.40;;
67861;SDS011;54665;51.462;6.698;2024-01-30T11:02:40;14.57;;;7.37;;
67861;SDS011;54665;51.462;6.698;2024-01-30T11:04:41;18.02;;;8.40;;
67861;SDS011;54665;51.462;6.698;2024-01-30T11:06:42;16.83;;;7.83;;
67861;SDS011;54665;51.462;6.698;2024-01-30T11:08:42;17.47;;;8.13;;
67861;SDS011;54665;51.462;6.698;2024-01-30T11:10:46;17.40;;;8.07;;
67861;SDS011;54665;51.462;6.698;2024-01-30T11:12:47;17.48;;;8.00;;
67861;SDS011;54665;51.462;6.698;2024-01-30T11:14:47;16.20;;;7.83;;
67861;SDS011;54665;51.462;6.698;2024-01-30T11:16:48;18.70;;;8.20;;
67861;SDS011;54665;51.462;6.698;2024-01-30T11:18:52;15.65;;;6.93;;
67861;SDS011;54665;51.462;6.698;2024-01-30T11:20:52;15.83;;;7.33;;
67861;SDS011;54665;51.462;6.698;2024-01-30T11:22:53;14.90;;;7.30;;
67861;SDS011;54665;51.462;6.698;2024-01-30T11:24:55;14.45;;;7.20;;
67861;SDS011;54665;51.462;6.698;2024-01-30T11:26:56;17.53;;;7.20;;
67861;SDS011;54665;51.462;6.698;2024-01-30T11:28:57;16.38;;;6.30;;
67861;SDS011;54665;51.462;6.698;2024-01-30T11:31:04;16.60;;;7.10;;
67861;SDS011;54665;51.462;6.698;2024-01-30T11:33:06;14.35;;;7.20;;
67861;SDS011;54665;51.462;6.698;2024-01-30T11:35:07;14.10;;;7.30;;
67861;SDS011;54665;51.462;6.698;2024-01-30T11:37:09;13.13;;;6.50;;
67861;SDS011;54665;51.462;6.698;2024-01-30T11:39:12;17.07;;;7.10;;
67861;SDS011;54665;51.462;6.698;2024-01-30T11:41:14;18.50;;;7.93;;
67861;SDS011;54665;51.462;6.698;2024-01-30T11:43:15;19.52;;;7.32;;
67861;SDS011;54665;51.462;6.698;2024-01-30T11:45:17;15.98;;;7.15;;
67861;SDS011;54665;51.462;6.698;2024-01-30T11:47:17;17.37;;;7.23;;
67861;SDS011;54665;51.462;6.698;2024-01-30T11:49:18;15.97;;;7.17;;
67861;SDS011;54665;51.462;6.698;2024-01-30T11:51:18;15.60;;;7.40;;
67861;SDS011;54665;51.462;6.698;2024-01-30T11:53:19;13.60;;;6.90;;
67861;SDS011;54665;51.462;6.698;2024-01-30T11:55:19;15.10;;;7.07;;